sensor_id;sensor_type;location;lat;lon;timestamp;pressure;altitude;pressure_sealevel;temperature;humidity
55550;BME280;41397;49.972;18.944;2023-05-20T00:00:19;102782.52;;;14.35;77.80
55550;BME280;41397;49.972;18.944;2023-05-20T00:03:25;102779.65;;;14.37;77.95
55550;BME280;41397;49.972;18.944;2023-05-20T00:06:27;102771.89;;;14.29;77.79
55550;BME280;41397;49.972;18.944;2023-05-20T00:09:28;102780.86;;;14.33;78.01
55550;BME280;41397;49.972;18.944;2023-05-20T00:12:29;102765.88;;;14.37;77.79
55550;BME280;41397;49.972;18.944;2023-05-20T00:15:31;102778.30;;;14.30;77.93
55550;BME280;41397;49.972;18.944;2023-05-20T00:18:32;102781.81;;;14.32;77.90
55550;BME280;41397;49.972;18.944;2023-05-20T00:21:34;102777.02;;;14.35;77.70
55550;BME280;41397;49.972;18.944;2023-05-20T00:24:35;102790.86;;;14.34;77.67
55550;BME280;41397;49.972;18.944;2023-05-20T00:27:36;102781.34;;;14.25;77.72
55550;BME280;41397;49.972;18.944;2023-05-20T00:30:41;102777.80;;;14.23;77.89
55550;BME280;41397;49.972;18.944;2023-05-20T00:33:42;102775.44;;;14.31;77.65
55550;BME280;41397;49.972;18.944;2023-05-20T00:36:44;102777.02;;;14.21;77.88
55550;BME280;41397;49.972;18.944;2023-05-20T00:39:45;102771.51;;;14.21;77.93
55550;BME280;41397;49.972;18.944;2023-05-20T00:42:50;102772.03;;;14.13;78.03
55550;BME280;41397;49.972;18.944;2023-05-20T00:45:52;102758.74;;;14.20;77.75
55550;BME280;41397;49.972;18.944;2023-05-20T00:48:54;102770.84;;;14.17;78.14
55550;BME280;41397;49.972;18.944;2023-05-20T00:51:55;102757.66;;;14.23;77.77
55550;BME280;41397;49.972;18.944;2023-05-20T00:54:58;102759.16;;;14.14;78.12
55550;BME280;41397;49.972;18.944;2023-05-20T00:58:00;102759.74;;;14.19;78.05
55550;BME280;41397;49.972;18.944;2023-05-20T01:01:01;102762.59;;;14.17;78.17
55550;BME280;41397;49.972;18.944;2023-05-20T01:04:03;102758.74;;;14.20;78.16
55550;BME280;41397;49.972;18.944;2023-05-20T01:07:06;102763.78;;;14.13;78.20
55550;BME280;41397;49.972;18.944;2023-05-20T01:10:08;102756.99;;;14.19;78.35
55550;BME280;41397;49.972;18.944;2023-05-20T01:13:12;102746.74;;;14.21;78.16
55550;BME280;41397;49.972;18.944;2023-05-20T01:16:17;102748.16;;;14.14;78.32
55550;BME280;41397;49.972;18.944;2023-05-20T01:22:55;102766.92;;;14.07;78.61
55550;BME280;41397;49.972;18.944;2023-05-20T01:25:50;102764.87;;;14.11;78.70
55550;BME280;41397;49.972;18.944;2023-05-20T01:28:52;102755.23;;;14.04;78.99
55550;BME280;41397;49.972;18.944;2023-05-20T01:31:57;102757.19;;;14.02;79.24
55550;BME280;41397;49.972;18.944;2023-05-20T01:35:00;102760.06;;;14.00;79.32
55550;BME280;41397;49.972;18.944;2023-05-20T01:38:04;102761.72;;;13.88;79.70
55550;BME280;41397;49.972;18.944;2023-05-20T01:41:06;102757.40;;;13.98;79.77
55550;BME280;41397;49.972;18.944;2023-05-20T01:44:08;102764.98;;;13.95;79.74
55550;BME280;41397;49.972;18.944;2023-05-20T01:47:10;102762.82;;;14.00;79.76
55550;BME280;41397;49.972;18.944;2023-05-20T01:50:11;102770.57;;;13.79;80.25
55550;BME280;41397;49.972;18.944;2023-05-20T01:53:13;102770.77;;;13.90;80.09
55550;BME280;41397;49.972;18.944;2023-05-20T01:56:14;102767.23;;;13.88;80.60
55550;BME280;41397;49.972;18.944;2023-05-20T01:59:16;102758.80;;;13.91;80.24
55550;BME280;41397;49.972;18.944;2023-05-20T02:02:17;102759.36;;;13.82;80.34
55550;BME280;41397;49.972;18.944;2023-05-20T02:05:19;102752.59;;;13.88;80.36
55550;BME280;41397;49.972;18.944;2023-05-20T02:08:22;102757.41;;;13.84;80.18
55550;BME280;41397;49.972;18.944;2023-05-20T02:11:23;102757.30;;;13.86;80.31
55550;BME280;41397;49.972;18.944;2023-05-20T02:14:25;102766.15;;;13.76;80.56
55550;BME280;41397;49.972;18.944;2023-05-20T02:17:26;102760.17;;;13.70;80.97
55550;BME280;41397;49.972;18.944;2023-05-20T02:20:28;102756.34;;;13.72;81.10
55550;BME280;41397;49.972;18.944;2023-05-20T02:23:30;102767.52;;;13.69;81.23
55550;BME280;41397;49.972;18.944;2023-05-20T02:26:33;102771.53;;;13.64;81.43
55550;BME280;41397;49.972;18.944;2023-05-20T02:29:35;102759.46;;;13.66;81.27
55550;BME280;41397;49.972;18.944;2023-05-20T02:32:36;102766.63;;;13.69;81.37
55550;BME280;41397;49.972;18.944;2023-05-20T02:35:38;102751.13;;;13.68;81.60
55550;BME280;41397;49.972;18.944;2023-05-20T02:38:41;102754.67;;;13.70;81.72
55550;BME280;41397;49.972;18.944;2023-05-20T02:41:42;102762.72;;;13.73;81.63
55550;BME280;41397;49.972;18.944;2023-05-20T02:44:44;102764.08;;;13.80;81.38
55550;BME280;41397;49.972;18.944;2023-05-20T02:47:46;102764.00;;;13.82;81.39
55550;BME280;41397;49.972;18.944;2023-05-20T02:50:49;102776.17;;;13.92;81.13
55550;BME280;41397;49.972;18.944;2023-05-20T02:53:50;102763.19;;;13.94;80.83
55550;BME280;41397;49.972;18.944;2023-05-20T02:56:52;102762.70;;;14.02;80.61
55550;BME280;41397;49.972;18.944;2023-05-20T02:59:54;102772.03;;;13.99;80.63
55550;BME280;41397;49.972;18.944;2023-05-20T03:02:58;102767.32;;;14.01;80.74
55550;BME280;41397;49.972;18.944;2023-05-20T03:05:59;102768.19;;;14.02;80.93
55550;BME280;41397;49.972;18.944;2023-05-20T03:09:01;102760.94;;;14.01;80.84
55550;BME280;41397;49.972;18.944;2023-05-20T03:12:02;102764.37;;;14.04;80.86
55550;BME280;41397;49.972;18.944;2023-05-20T03:15:07;102776.94;;;13.94;80.73
55550;BME280;41397;49.972;18.944;2023-05-20T03:18:09;102758.40;;;13.97;80.80
55550;BME280;41397;49.972;18.944;2023-05-20T03:21:12;102768.70;;;14.08;80.43
55550;BME280;41397;49.972;18.944;2023-05-20T03:24:13;102770.95;;;14.02;80.69
55550;BME280;41397;49.972;18.944;2023-05-20T03:27:15;102774.98;;;13.96;80.45
55550;BME280;41397;49.972;18.944;2023-05-20T03:30:16;102774.70;;;13.86;80.60
55550;BME280;41397;49.972;18.944;2023-05-20T03:33:18;102779.52;;;13.97;80.29
55550;BME280;41397;49.972;18.944;2023-05-20T03:36:21;102784.31;;;13.93;80.18
55550;BME280;41397;49.972;18.944;2023-05-20T03:39:22;102778.03;;;13.77;80.41
55550;BME280;41397;49.972;18.944;2023-05-20T03:42:24;102773.31;;;13.79;80.48
55550;BME280;41397;49.972;18.944;2023-05-20T03:45:25;102776.47;;;13.73;80.48
55550;BME280;41397;49.972;18.944;2023-05-20T03:48:27;102773.61;;;13.60;81.04
55550;BME280;41397;49.972;18.944;2023-05-20T03:51:30;102793.16;;;13.70;80.89
55550;BME280;41397;49.972;18.944;2023-05-20T03:54:32;102786.88;;;13.68;80.86
55550;BME280;41397;49.972;18.944;2023-05-20T03:57:36;102782.77;;;13.75;80.68
55550;BME280;41397;49.972;18.944;2023-05-20T04:00:38;102790.02;;;13.76;80.78
55550;BME280;41397;49.972;18.944;2023-05-20T04:03:40;102785.31;;;13.78;80.63
55550;BME280;41397;49.972;18.944;2023-05-20T04:06:44;102784.81;;;13.71;80.88
55550;BME280;41397;49.972;18.944;2023-05-20T04:09:46;102784.12;;;13.82;80.76
55550;BME280;41397;49.972;18.944;2023-05-20T04:12:47;102788.15;;;13.76;80.82
55550;BME280;41397;49.972;18.944;2023-05-20T04:15:49;102787.07;;;13.79;80.54
55550;BME280;41397;49.972;18.944;2023-05-20T04:18:53;102790.50;;;13.83;80.58
55550;BME280;41397;49.972;18.944;2023-05-20T04:21:55;102785.79;;;13.85;80.46
55550;BME280;41397;49.972;18.944;2023-05-20T04:24:56;102796.39;;;13.91;79.98
55550;BME280;41397;49.972;18.944;2023-05-20T04:27:59;102790.61;;;13.81;80.13
55550;BME280;41397;49.972;18.944;2023-05-20T04:31:01;102781.77;;;13.90;80.11
55550;BME280;41397;49.972;18.944;2023-05-20T04:34:05;102772.73;;;13.88;80.15
55550;BME280;41397;49.972;18.944;2023-05-20T04:37:08;102770.97;;;13.87;80.01
55550;BME280;41397;49.972;18.944;2023-05-20T04:40:11;102775.09;;;13.94;79.71
55550;BME280;41397;49.972;18.944;2023-05-20T04:43:13;102780.99;;;14.03;79.72
55550;BME280;41397;49.972;18.944;2023-05-20T04:46:16;102778.71;;;14.09;79.13
55550;BME280;41397;49.972;18.944;2023-05-20T04:49:18;102779.99;;;14.04;79.32
55550;BME280;41397;49.972;18.944;2023-05-20T04:52:20;102780.97;;;14.17;78.96
55550;BME280;41397;49.972;18.944;2023-05-20T04:55:21;102784.59;;;14.17;78.97
55550;BME280;41397;49.972;18.944;2023-05-20T04:58:27;102787.85;;;14.24;79.02
55550;BME280;41397;49.972;18.944;2023-05-20T05:01:31;102784.09;;;14.25;78.91
55550;BME280;41397;49.972;18.944;2023-05-20T05:04:33;102780.36;;;14.26;78.65
55550;BME280;41397;49.972;18.944;2023-05-20T05:07:34;102776.63;;;14.27;78.42
55550;BME280;41397;49.972;18.944;2023-05-20T05:10:36;102778.56;;;14.39;78.25
55550;BME280;41397;49.972;18.944;2023-05-20T05:13:37;102779.43;;;14.40;78.11
55550;BME280;41397;49.972;18.944;2023-05-20T05:16:39;102779.65;;;14.37;78.12
55550;BME280;41397;49.972;18.944;2023-05-20T05:19:40;102766.47;;;14.42;78.05
55550;BME280;41397;49.972;18.944;2023-05-20T05:22:42;102765.84;;;14.51;77.83
55550;BME280;41397;49.972;18.944;2023-05-20T05:25:44;102775.21;;;14.49;77.90
55550;BME280;41397;49.972;18.944;2023-05-20T05:28:45;102771.51;;;14.35;78.12
55550;BME280;41397;49.972;18.944;2023-05-20T05:31:46;102767.13;;;14.46;78.63
55550;BME280;41397;49.972;18.944;2023-05-20T05:34:48;102772.74;;;14.58;78.26
55550;BME280;41397;49.972;18.944;2023-05-20T05:37:49;102779.20;;;14.72;77.83
55550;BME280;41397;49.972;18.944;2023-05-20T05:40:50;102782.24;;;14.67;77.89
55550;BME280;41397;49.972;18.944;2023-05-20T05:43:53;102786.09;;;14.64;78.04
55550;BME280;41397;49.972;18.944;2023-05-20T05:46:55;102775.07;;;14.64;78.14
55550;BME280;41397;49.972;18.944;2023-05-20T05:49:56;102781.73;;;14.75;78.23
55550;BME280;41397;49.972;18.944;2023-05-20T05:52:57;102784.62;;;14.73;78.31
55550;BME280;41397;49.972;18.944;2023-05-20T05:55:59;102771.59;;;14.75;78.45
55550;BME280;41397;49.972;18.944;2023-05-20T05:59:00;102768.45;;;14.81;78.18
55550;BME280;41397;49.972;18.944;2023-05-20T06:02:02;102762.94;;;14.81;78.21
55550;BME280;41397;49.972;18.944;2023-05-20T06:05:04;102768.45;;;14.81;78.53
55550;BME280;41397;49.972;18.944;2023-05-20T06:08:06;102764.05;;;14.92;78.50
55550;BME280;41397;49.972;18.944;2023-05-20T06:11:08;102759.01;;;14.98;78.53
55550;BME280;41397;49.972;18.944;2023-05-20T06:14:10;102757.35;;;14.96;78.42
55550;BME280;41397;49.972;18.944;2023-05-20T06:17:11;102760.27;;;14.80;78.79
55550;BME280;41397;49.972;18.944;2023-05-20T06:20:12;102763.73;;;14.96;79.22
55550;BME280;41397;49.972;18.944;2023-05-20T06:23:14;102772.59;;;15.01;78.74
55550;BME280;41397;49.972;18.944;2023-05-20T06:26:16;102785.92;;;15.07;78.59
55550;BME280;41397;49.972;18.944;2023-05-20T06:29:19;102784.47;;;15.02;78.75
55550;BME280;41397;49.972;18.944;2023-05-20T06:32:20;102788.23;;;15.01;78.94
55550;BME280;41397;49.972;18.944;2023-05-20T06:35:22;102778.53;;;15.08;78.78
55550;BME280;41397;49.972;18.944;2023-05-20T06:38:23;102771.84;;;15.12;78.71
55550;BME280;41397;49.972;18.944;2023-05-20T06:41:27;102765.22;;;15.15;78.85
55550;BME280;41397;49.972;18.944;2023-05-20T06:44:30;102771.57;;;15.02;78.98
55550;BME280;41397;49.972;18.944;2023-05-20T06:47:31;102759.36;;;15.06;78.80
55550;BME280;41397;49.972;18.944;2023-05-20T06:50:33;102753.42;;;15.13;79.00
55550;BME280;41397;49.972;18.944;2023-05-20T06:53:35;102768.54;;;15.20;78.81
55550;BME280;41397;49.972;18.944;2023-05-20T06:56:36;102766.14;;;15.28;78.56
55550;BME280;41397;49.972;18.944;2023-05-20T06:59:38;102749.13;;;15.21;78.65
55550;BME280;41397;49.972;18.944;2023-05-20T07:02:40;102752.44;;;15.26;78.36
55550;BME280;41397;49.972;18.944;2023-05-20T07:05:43;102753.02;;;15.31;78.20
55550;BME280;41397;49.972;18.944;2023-05-20T07:08:45;102751.24;;;15.30;77.82
55550;BME280;41397;49.972;18.944;2023-05-20T07:11:49;102748.37;;;15.32;77.69
55550;BME280;41397;49.972;18.944;2023-05-20T07:14:50;102736.80;;;15.40;77.65
55550;BME280;41397;49.972;18.944;2023-05-20T07:17:52;102738.55;;;15.41;77.72
55550;BME280;41397;49.972;18.944;2023-05-20T07:20:54;102732.73;;;15.45;77.29
55550;BME280;41397;49.972;18.944;2023-05-20T07:23:57;102736.59;;;15.56;77.57
55550;BME280;41397;49.972;18.944;2023-05-20T07:26:58;102737.24;;;15.59;77.67
55550;BME280;41397;49.972;18.944;2023-05-20T07:30:00;102746.75;;;15.55;77.65
55550;BME280;41397;49.972;18.944;2023-05-20T07:33:05;102751.82;;;15.61;77.16
55550;BME280;41397;49.972;18.944;2023-05-20T07:36:07;102751.69;;;15.63;77.11
55550;BME280;41397;49.972;18.944;2023-05-20T07:39:08;102745.10;;;15.78;76.82
55550;BME280;41397;49.972;18.944;2023-05-20T07:42:11;102738.71;;;15.78;76.58
55550;BME280;41397;49.972;18.944;2023-05-20T07:45:13;102734.16;;;15.76;76.34
55550;BME280;41397;49.972;18.944;2023-05-20T07:48:15;102741.10;;;15.82;76.30
55550;BME280;41397;49.972;18.944;2023-05-20T07:51:16;102745.74;;;15.94;76.21
55550;BME280;41397;49.972;18.944;2023-05-20T07:54:18;102738.55;;;16.05;75.70
55550;BME280;41397;49.972;18.944;2023-05-20T07:57:20;102735.98;;;16.14;75.81
55550;BME280;41397;49.972;18.944;2023-05-20T08:00:22;102739.91;;;16.23;75.68
55550;BME280;41397;49.972;18.944;2023-05-20T08:03:24;102737.27;;;16.34;75.43
55550;BME280;41397;49.972;18.944;2023-05-20T08:06:27;102727.43;;;16.30;75.29
55550;BME280;41397;49.972;18.944;2023-05-20T08:09:30;102733.59;;;16.34;75.33
55550;BME280;41397;49.972;18.944;2023-05-20T08:12:32;102731.27;;;16.40;75.21
55550;BME280;41397;49.972;18.944;2023-05-20T08:15:34;102730.80;;;16.47;74.83
55550;BME280;41397;49.972;18.944;2023-05-20T08:18:36;102716.88;;;16.48;74.49
55550;BME280;41397;49.972;18.944;2023-05-20T08:21:38;102725.09;;;16.61;74.33
55550;BME280;41397;49.972;18.944;2023-05-20T08:24:46;102715.98;;;16.72;74.24
55550;BME280;41397;49.972;18.944;2023-05-20T08:27:48;102717.86;;;16.71;73.99
55550;BME280;41397;49.972;18.944;2023-05-20T08:30:49;102704.92;;;16.72;73.92
55550;BME280;41397;49.972;18.944;2023-05-20T08:33:56;102719.07;;;16.80;74.08
55550;BME280;41397;49.972;18.944;2023-05-20T08:36:58;102713.56;;;16.91;73.21
55550;BME280;41397;49.972;18.944;2023-05-20T08:39:59;102709.70;;;16.94;73.44
55550;BME280;41397;49.972;18.944;2023-05-20T08:43:01;102705.73;;;17.09;73.28
55550;BME280;41397;49.972;18.944;2023-05-20T08:46:04;102705.48;;;17.12;72.77
55550;BME280;41397;49.972;18.944;2023-05-20T08:49:07;102715.17;;;17.18;72.64
55550;BME280;41397;49.972;18.944;2023-05-20T08:52:10;102699.59;;;17.17;72.62
55550;BME280;41397;49.972;18.944;2023-05-20T08:55:16;102710.27;;;17.21;72.58
55550;BME280;41397;49.972;18.944;2023-05-20T08:58:23;102700.63;;;17.27;72.37
55550;BME280;41397;49.972;18.944;2023-05-20T09:01:31;102697.20;;;17.23;72.61
55550;BME280;41397;49.972;18.944;2023-05-20T09:04:33;102698.50;;;17.42;72.56
55550;BME280;41397;49.972;18.944;2023-05-20T09:07:34;102706.53;;;17.34;72.89
55550;BME280;41397;49.972;18.944;2023-05-20T09:10:38;102688.93;;;17.35;72.51
55550;BME280;41397;49.972;18.944;2023-05-20T09:13:39;102711.46;;;17.52;72.36
55550;BME280;41397;49.972;18.944;2023-05-20T09:16:41;102703.78;;;17.56;72.04
55550;BME280;41397;49.972;18.944;2023-05-20T09:19:42;102703.42;;;17.72;71.80
55550;BME280;41397;49.972;18.944;2023-05-20T09:22:44;102691.48;;;17.71;71.81
55550;BME280;41397;49.972;18.944;2023-05-20T09:25:49;102695.64;;;17.66;71.52
55550;BME280;41397;49.972;18.944;2023-05-20T09:28:52;102711.72;;;17.72;71.42
55550;BME280;41397;49.972;18.944;2023-05-20T09:31:54;102700.41;;;17.75;71.32
55550;BME280;41397;49.972;18.944;2023-05-20T09:34:57;102689.10;;;17.89;71.00
55550;BME280;41397;49.972;18.944;2023-05-20T09:38:01;102697.80;;;17.85;71.14
55550;BME280;41397;49.972;18.944;2023-05-20T09:41:07;102689.36;;;17.86;71.39
55550;BME280;41397;49.972;18.944;2023-05-20T09:44:09;102688.46;;;17.97;70.87
55550;BME280;41397;49.972;18.944;2023-05-20T09:47:11;102688.71;;;18.05;71.03
55550;BME280;41397;49.972;18.944;2023-05-20T09:50:14;102689.70;;;18.15;70.49
55550;BME280;41397;49.972;18.944;2023-05-20T09:53:16;102688.65;;;18.39;70.03
55550;BME280;41397;49.972;18.944;2023-05-20T09:56:19;102700.61;;;18.39;69.47
55550;BME280;41397;49.972;18.944;2023-05-20T09:59:24;102693.93;;;18.42;69.59
55550;BME280;41397;49.972;18.944;2023-05-20T10:02:27;102699.91;;;18.58;69.41
55550;BME280;41397;49.972;18.944;2023-05-20T10:05:37;102680.99;;;18.75;69.43
55550;BME280;41397;49.972;18.944;2023-05-20T10:18:35;102667.13;;;19.17;68.63
55550;BME280;41397;49.972;18.944;2023-05-20T10:21:36;102672.00;;;19.24;68.18
55550;BME280;41397;49.972;18.944;2023-05-20T10:24:42;102669.55;;;19.31;68.74
55550;BME280;41397;49.972;18.944;2023-05-20T10:27:48;102678.84;;;19.20;68.15
55550;BME280;41397;49.972;18.944;2023-05-20T10:30:49;102661.09;;;19.33;67.41
55550;BME280;41397;49.972;18.944;2023-05-20T10:33:52;102654.95;;;19.29;66.85
55550;BME280;41397;49.972;18.944;2023-05-20T10:36:58;102652.02;;;19.30;67.01
55550;BME280;41397;49.972;18.944;2023-05-20T10:40:14;102649.45;;;19.39;67.15
55550;BME280;41397;49.972;18.944;2023-05-20T10:43:14;102673.63;;;19.58;66.47
55550;BME280;41397;49.972;18.944;2023-05-20T10:46:18;102649.74;;;19.66;67.26
55550;BME280;41397;49.972;18.944;2023-05-20T10:49:20;102641.84;;;19.62;67.39
55550;BME280;41397;49.972;18.944;2023-05-20T10:52:22;102653.91;;;19.82;67.03
55550;BME280;41397;49.972;18.944;2023-05-20T10:55:24;102645.41;;;19.83;67.04
55550;BME280;41397;49.972;18.944;2023-05-20T10:58:26;102646.20;;;19.95;66.83
55550;BME280;41397;49.972;18.944;2023-05-20T11:01:27;102648.94;;;19.85;66.39
55550;BME280;41397;49.972;18.944;2023-05-20T11:04:29;102642.64;;;19.83;66.56
55550;BME280;41397;49.972;18.944;2023-05-20T11:07:31;102632.27;;;19.76;67.33
55550;BME280;41397;49.972;18.944;2023-05-20T11:10:36;102620.42;;;19.83;66.62
55550;BME280;41397;49.972;18.944;2023-05-20T11:13:38;102618.15;;;19.98;67.15
55550;BME280;41397;49.972;18.944;2023-05-20T11:16:41;102629.84;;;20.02;67.55
55550;BME280;41397;49.972;18.944;2023-05-20T11:19:42;102614.82;;;20.14;66.64
55550;BME280;41397;49.972;18.944;2023-05-20T11:22:44;102601.37;;;20.29;66.27
55550;BME280;41397;49.972;18.944;2023-05-20T11:25:46;102611.03;;;20.25;65.88
55550;BME280;41397;49.972;18.944;2023-05-20T11:28:47;102601.95;;;20.23;66.15
55550;BME280;41397;49.972;18.944;2023-05-20T11:31:49;102602.41;;;20.28;66.56
55550;BME280;41397;49.972;18.944;2023-05-20T11:34:53;102618.77;;;20.31;65.78
55550;BME280;41397;49.972;18.944;2023-05-20T11:41:09;102599.61;;;20.18;66.14
55550;BME280;41397;49.972;18.944;2023-05-20T11:44:11;102597.56;;;20.20;65.85
55550;BME280;41397;49.972;18.944;2023-05-20T11:47:15;102608.23;;;20.15;66.33
55550;BME280;41397;49.972;18.944;2023-05-20T11:50:18;102590.41;;;20.27;65.88
55550;BME280;41397;49.972;18.944;2023-05-20T11:53:23;102598.76;;;20.27;66.83
55550;BME280;41397;49.972;18.944;2023-05-20T11:59:38;102574.44;;;20.49;66.20
55550;BME280;41397;49.972;18.944;2023-05-20T12:02:39;102571.40;;;20.52;66.25
55550;BME280;41397;49.972;18.944;2023-05-20T12:05:41;102588.52;;;20.57;66.28
55550;BME280;41397;49.972;18.944;2023-05-20T12:08:43;102576.82;;;20.53;66.22
55550;BME280;41397;49.972;18.944;2023-05-20T12:11:45;102562.20;;;20.61;65.54
55550;BME280;41397;49.972;18.944;2023-05-20T12:14:52;102550.21;;;20.60;65.61
55550;BME280;41397;49.972;18.944;2023-05-20T12:17:53;102547.09;;;20.73;66.08
55550;BME280;41397;49.972;18.944;2023-05-20T12:20:55;102547.52;;;20.78;65.87
55550;BME280;41397;49.972;18.944;2023-05-20T12:23:58;102556.27;;;20.93;65.51
55550;BME280;41397;49.972;18.944;2023-05-20T12:27:00;102537.13;;;20.90;65.40
55550;BME280;41397;49.972;18.944;2023-05-20T12:30:10;102558.63;;;20.88;65.30
55550;BME280;41397;49.972;18.944;2023-05-20T12:33:11;102557.59;;;20.89;65.10
55550;BME280;41397;49.972;18.944;2023-05-20T12:36:13;102579.27;;;20.86;65.05
55550;BME280;41397;49.972;18.944;2023-05-20T12:39:15;102549.06;;;21.00;65.19
55550;BME280;41397;49.972;18.944;2023-05-20T12:42:21;102549.18;;;21.09;64.91
55550;BME280;41397;49.972;18.944;2023-05-20T12:45:23;102536.88;;;21.11;65.72
55550;BME280;41397;49.972;18.944;2023-05-20T12:48:24;102547.12;;;21.20;65.21
55550;BME280;41397;49.972;18.944;2023-05-20T12:51:26;102536.01;;;21.11;64.99
55550;BME280;41397;49.972;18.944;2023-05-20T12:54:27;102528.06;;;21.25;64.81
55550;BME280;41397;49.972;18.944;2023-05-20T12:57:28;102522.31;;;21.27;64.52
55550;BME280;41397;49.972;18.944;2023-05-20T13:00:31;102517.31;;;21.31;64.16
55550;BME280;41397;49.972;18.944;2023-05-20T13:03:32;102537.20;;;21.36;64.33
55550;BME280;41397;49.972;18.944;2023-05-20T13:06:33;102519.08;;;21.32;64.82
55550;BME280;41397;49.972;18.944;2023-05-20T13:09:35;102515.36;;;21.50;65.28
55550;BME280;41397;49.972;18.944;2023-05-20T13:12:37;102524.02;;;21.47;65.24
55550;BME280;41397;49.972;18.944;2023-05-20T13:15:38;102512.67;;;21.59;65.19
55550;BME280;41397;49.972;18.944;2023-05-20T13:18:41;102506.23;;;21.58;64.65
55550;BME280;41397;49.972;18.944;2023-05-20T13:21:42;102503.82;;;21.63;64.78
55550;BME280;41397;49.972;18.944;2023-05-20T13:24:44;102503.59;;;21.57;64.90
55550;BME280;41397;49.972;18.944;2023-05-20T13:27:46;102498.79;;;21.49;64.82
55550;BME280;41397;49.972;18.944;2023-05-20T13:30:49;102493.01;;;21.60;65.20
55550;BME280;41397;49.972;18.944;2023-05-20T13:33:51;102484.74;;;21.68;64.95
55550;BME280;41397;49.972;18.944;2023-05-20T13:36:54;102494.63;;;21.81;63.20
55550;BME280;41397;49.972;18.944;2023-05-20T13:39:56;102474.82;;;21.84;62.98
55550;BME280;41397;49.972;18.944;2023-05-20T13:42:57;102466.69;;;21.90;63.63
55550;BME280;41397;49.972;18.944;2023-05-20T13:45:59;102497.18;;;21.92;62.45
55550;BME280;41397;49.972;18.944;2023-05-20T13:49:00;102470.74;;;21.96;62.76
55550;BME280;41397;49.972;18.944;2023-05-20T13:52:02;102475.69;;;21.84;63.11
55550;BME280;41397;49.972;18.944;2023-05-20T13:55:08;102464.22;;;21.87;63.73
55550;BME280;41397;49.972;18.944;2023-05-20T13:58:09;102452.06;;;21.88;63.92
55550;BME280;41397;49.972;18.944;2023-05-20T14:01:11;102447.12;;;22.00;63.59
55550;BME280;41397;49.972;18.944;2023-05-20T14:04:12;102456.19;;;22.02;63.82
55550;BME280;41397;49.972;18.944;2023-05-20T14:07:14;102448.06;;;22.09;63.74
55550;BME280;41397;49.972;18.944;2023-05-20T14:10:15;102445.44;;;22.25;63.90
55550;BME280;41397;49.972;18.944;2023-05-20T14:13:17;102439.91;;;22.33;63.78
55550;BME280;41397;49.972;18.944;2023-05-20T14:16:18;102449.01;;;22.35;62.40
55550;BME280;41397;49.972;18.944;2023-05-20T14:19:20;102449.54;;;22.39;62.91
55550;BME280;41397;49.972;18.944;2023-05-20T14:22:21;102433.88;;;22.38;63.56
55550;BME280;41397;49.972;18.944;2023-05-20T14:25:23;102439.11;;;22.41;63.17
55550;BME280;41397;49.972;18.944;2023-05-20T14:28:24;102425.17;;;22.41;62.32
55550;BME280;41397;49.972;18.944;2023-05-20T14:31:28;102419.59;;;22.41;62.29
55550;BME280;41397;49.972;18.944;2023-05-20T14:34:29;102413.54;;;22.46;61.71
55550;BME280;41397;49.972;18.944;2023-05-20T14:37:31;102427.30;;;22.47;61.21
55550;BME280;41397;49.972;18.944;2023-05-20T14:40:33;102421.58;;;22.49;61.40
55550;BME280;41397;49.972;18.944;2023-05-20T14:43:36;102420.85;;;22.47;61.33
55550;BME280;41397;49.972;18.944;2023-05-20T14:46:37;102422.29;;;22.51;61.49
55550;BME280;41397;49.972;18.944;2023-05-20T14:49:39;102417.97;;;22.56;61.06
55550;BME280;41397;49.972;18.944;2023-05-20T14:52:42;102417.40;;;22.53;60.33
55550;BME280;41397;49.972;18.944;2023-05-20T14:55:44;102418.27;;;22.53;60.67
55550;BME280;41397;49.972;18.944;2023-05-20T14:58:45;102417.63;;;22.59;60.93
55550;BME280;41397;49.972;18.944;2023-05-20T15:01:46;102415.17;;;22.56;61.51
55550;BME280;41397;49.972;18.944;2023-05-20T15:04:48;102418.06;;;22.47;61.35
55550;BME280;41397;49.972;18.944;2023-05-20T15:07:51;102408.35;;;22.51;62.29
55550;BME280;41397;49.972;18.944;2023-05-20T15:10:53;102390.39;;;22.53;61.68
55550;BME280;41397;49.972;18.944;2023-05-20T15:13:54;102393.41;;;22.60;61.68
55550;BME280;41397;49.972;18.944;2023-05-20T15:16:56;102396.67;;;22.55;61.54
55550;BME280;41397;49.972;18.944;2023-05-20T15:19:59;102381.05;;;22.63;61.94
55550;BME280;41397;49.972;18.944;2023-05-20T15:23:01;102380.74;;;22.74;61.67
55550;BME280;41397;49.972;18.944;2023-05-20T15:26:03;102380.79;;;22.82;62.07
55550;BME280;41397;49.972;18.944;2023-05-20T15:29:05;102368.91;;;22.80;61.85
55550;BME280;41397;49.972;18.944;2023-05-20T15:32:07;102395.41;;;22.76;61.56
55550;BME280;41397;49.972;18.944;2023-05-20T15:35:09;102372.79;;;22.87;61.81
55550;BME280;41397;49.972;18.944;2023-05-20T15:38:10;102364.79;;;22.92;61.80
55550;BME280;41397;49.972;18.944;2023-05-20T15:41:12;102365.45;;;22.86;62.43
55550;BME280;41397;49.972;18.944;2023-05-20T15:44:16;102378.03;;;22.90;62.10
55550;BME280;41397;49.972;18.944;2023-05-20T15:47:17;102370.53;;;22.91;62.64
55550;BME280;41397;49.972;18.944;2023-05-20T15:50:19;102375.35;;;22.80;62.74
55550;BME280;41397;49.972;18.944;2023-05-20T15:53:20;102381.05;;;22.63;63.35
55550;BME280;41397;49.972;18.944;2023-05-20T15:56:24;102377.00;;;22.57;63.77
55550;BME280;41397;49.972;18.944;2023-05-20T15:59:25;102362.23;;;22.65;63.84